Time;durP1;ratioP1;P1;durP2;ratioP2;P2;SDS_P1;SDS_P2;PMS_P1;PMS_P2;Temp;Humidity;BMP_temperature;BMP_pressure;BME280_temperature;BME280_humidity;BME280_pressure;Samples;Min_cycle;Max_cycle;Signal;HPM_P1;HPM_P2
2022/10/28 00:02:30;;;;;;;40.20;23.10;;;;;;;9.44;93.88;101251.62;51943;1292;1016218;-80
2022/10/28 00:05:02;;;;;;;41.40;22.00;;;;;;;9.43;93.81;101254.36;51918;1310;1016225;-80
2022/10/28 00:07:33;;;;;;;39.00;22.80;;;;;;;9.41;93.92;101253.41;51898;1310;1016549;-80
2022/10/28 00:10:05;;;;;;;43.10;23.10;;;;;;;9.39;93.63;101254.27;51727;1299;1015868;-81
2022/10/28 00:12:39;;;;;;;36.50;20.20;;;;;;;9.40;93.48;101254.56;51884;1303;1015992;-80
2022/10/28 00:15:11;;;;;;;38.00;21.30;;;;;;;9.40;93.63;101258.53;51964;1303;1016438;-80
2022/10/28 00:17:42;;;;;;;40.60;23.90;;;;;;;9.39;93.85;101263.75;51948;1302;1016471;-79
2022/10/28 00:20:14;;;;;;;34.40;19.50;;;;;;;9.38;93.89;101265.63;51739;1310;1015894;-80
2022/10/28 00:22:45;;;;;;;35.90;20.80;;;;;;;9.37;93.78;101262.05;51670;1306;1016316;-80
2022/10/28 00:25:23;;;;;;;35.60;20.30;;;;;;;9.37;93.74;101259.17;51836;1303;1016026;-80
2022/10/28 00:27:54;;;;;;;36.40;19.60;;;;;;;9.39;93.68;101252.45;51863;1310;1015554;-80
2022/10/28 00:30:26;;;;;;;36.60;20.30;;;;;;;9.39;93.64;101246.70;51756;1309;1016391;-80
2022/10/28 00:32:58;;;;;;;40.80;19.70;;;;;;;9.41;93.68;101249.44;51630;1310;1016084;-80
2022/10/28 00:35:29;;;;;;;38.10;21.00;;;;;;;9.40;93.44;101246.90;51800;1309;1016405;-80
2022/10/28 00:38:01;;;;;;;35.30;19.80;;;;;;;9.40;93.69;101245.78;51678;1310;1016422;-80
2022/10/28 00:40:36;;;;;;;41.90;20.60;;;;;;;9.41;93.78;101248.70;51624;1280;1015818;-80
2022/10/28 00:43:09;;;;;;;40.70;20.20;;;;;;;9.40;93.93;101247.62;51576;1310;1015834;-80
2022/10/28 00:45:41;;;;;;;38.70;19.50;;;;;;;9.41;94.03;101245.14;51676;1306;1015944;-80
2022/10/28 00:48:12;;;;;;;39.40;19.60;;;;;;;9.40;94.01;101240.39;51693;1310;1016077;-80
2022/10/28 00:50:46;;;;;;;39.00;19.30;;;;;;;9.40;94.03;101235.27;51553;1310;1016220;-80
2022/10/28 00:53:22;;;;;;;37.10;20.90;;;;;;;9.41;94.03;101231.05;51640;1310;1017548;-80
2022/10/28 00:55:54;;;;;;;34.00;18.50;;;;;;;9.40;94.11;101229.77;51579;1310;1016203;-80
2022/10/28 00:58:28;;;;;;;37.80;20.70;;;;;;;9.41;94.08;101225.70;51953;1294;1015575;-80
2022/10/28 01:01:00;;;;;;;41.00;21.70;;;;;;;9.41;94.38;101224.90;52021;1294;1016958;-81
2022/10/28 01:03:31;;;;;;;39.20;21.10;;;;;;;9.42;94.74;101225.91;52011;1294;1015854;-81
2022/10/28 01:06:03;;;;;;;44.30;23.10;;;;;;;9.41;94.66;101222.52;51778;1310;1015941;-81
2022/10/28 01:08:34;;;;;;;45.30;23.20;;;;;;;9.41;94.55;101217.58;51707;1310;1016036;-81
2022/10/28 01:11:36;;;;;;;39.20;21.60;;;;;;;9.41;94.68;101214.23;52059;1287;1016032;-81
2022/10/28 01:14:17;;;;;;;41.50;22.20;;;;;;;9.40;94.69;101211.00;51699;1292;1016058;-81
2022/10/28 01:17:17;;;;;;;41.50;22.00;;;;;;;9.37;94.47;101207.10;51757;1309;1016109;-81
2022/10/28 01:20:19;;;;;;;37.40;19.90;;;;;;;9.35;94.47;101202.02;51858;1309;1016774;-80
2022/10/28 01:22:58;;;;;;;37.00;19.20;;;;;;;9.30;94.41;101200.65;51990;1310;1015725;-80
2022/10/28 01:25:57;;;;;;;39.70;21.00;;;;;;;9.28;94.31;101188.23;51921;1303;1016471;-80
2022/10/28 01:28:55;;;;;;;42.70;20.80;;;;;;;9.26;94.27;101192.58;51894;1314;1015930;-80
2022/10/28 01:31:33;;;;;;;37.80;18.60;;;;;;;9.25;94.43;101192.16;51814;1314;1016554;-80
2022/10/28 01:34:12;;;;;;;40.60;21.30;;;;;;;9.23;94.45;101185.82;52827;1314;1015653;-80
2022/10/28 01:36:55;;;;;;;39.00;19.40;;;;;;;9.23;94.53;101184.55;51754;1314;1018855;-80
2022/10/28 01:39:34;;;;;;;37.80;20.10;;;;;;;9.22;94.74;101184.43;51855;1314;1015882;-81
2022/10/28 01:42:14;;;;;;;36.40;18.50;;;;;;;9.23;94.80;101183.77;51800;1314;1016088;-80
2022/10/28 01:44:53;;;;;;;32.70;19.00;;;;;;;9.22;94.60;101183.98;51510;1314;1016023;-80
2022/10/28 01:47:29;;;;;;;31.10;15.90;;;;;;;9.20;94.50;101182.84;51679;1315;1016099;-80
2022/10/28 01:50:06;;;;;;;33.20;18.10;;;;;;;9.19;94.45;101177.29;51608;1314;1018054;-80
2022/10/28 01:52:41;;;;;;;34.20;18.70;;;;;;;9.17;94.17;101180.92;51724;1314;1016034;-80
2022/10/28 01:55:16;;;;;;;35.00;17.90;;;;;;;9.15;94.17;101179.58;51453;1315;1016367;-79
2022/10/28 01:57:51;;;;;;;34.30;18.40;;;;;;;9.13;94.27;101176.23;51510;1314;1016114;-79
2022/10/28 02:00:23;;;;;;;32.30;17.70;;;;;;;9.11;94.06;101171.45;51415;1314;1016252;-80
2022/10/28 02:02:55;;;;;;;39.30;19.10;;;;;;;9.11;94.14;101165.31;51518;1314;1016145;-80
2022/10/28 02:05:45;;;;;;;32.80;18.60;;;;;;;9.10;94.19;101159.06;51526;1312;1016441;-81
2022/10/28 02:08:43;;;;;;;34.80;18.20;;;;;;;9.08;94.05;101154.33;51759;1310;1015907;-81
2022/10/28 02:11:43;;;;;;;35.70;20.00;;;;;;;9.08;94.02;101153.31;51675;1288;1016400;-81
2022/10/28 02:14:30;;;;;;;36.10;18.00;;;;;;;9.06;94.03;101155.11;51664;1310;1016126;-81
2022/10/28 02:17:10;;;;;;;37.00;19.50;;;;;;;9.04;94.13;101157.48;51954;1309;1016153;-81
2022/10/28 02:19:54;;;;;;;31.90;17.70;;;;;;;9.04;94.14;101161.95;51931;1310;1016311;-80
2022/10/28 02:22:31;;;;;;;31.00;16.70;;;;;;;9.02;94.17;101166.61;51913;1311;1016008;-80
2022/10/28 02:25:09;;;;;;;31.90;17.10;;;;;;;9.01;94.10;101167.55;51831;1310;1016308;-81
2022/10/28 02:27:47;;;;;;;34.10;18.40;;;;;;;8.99;93.95;101159.86;51882;1304;1017029;-80
2022/10/28 02:30:21;;;;;;;36.60;16.50;;;;;;;8.96;93.81;101160.75;51935;1304;1016268;-80
2022/10/28 02:32:57;;;;;;;31.60;16.30;;;;;;;8.93;93.81;101159.35;51823;1305;1016511;-81
2022/10/28 02:35:33;;;;;;;31.30;16.00;;;;;;;8.91;93.79;101162.27;51894;1303;1017064;-81
2022/10/28 02:38:09;;;;;;;31.80;16.90;;;;;;;8.91;93.82;101163.16;51805;1294;1016383;-81
2022/10/28 02:40:47;;;;;;;34.10;15.90;;;;;;;8.89;93.80;101160.73;51933;1305;1018086;-81
2022/10/28 02:43:22;;;;;;;30.60;16.90;;;;;;;8.88;93.66;101161.09;51884;1304;1016195;-81
2022/10/28 02:45:59;;;;;;;29.20;16.00;;;;;;;8.85;93.50;101166.59;51825;1310;1016143;-81
2022/10/28 02:48:35;;;;;;;30.40;16.30;;;;;;;8.80;93.53;101163.14;51880;1310;1015909;-81
2022/10/28 02:51:11;;;;;;;36.60;16.80;;;;;;;8.77;93.44;101154.11;51857;1308;1016058;-80
2022/10/28 02:53:51;;;;;;;31.00;18.30;;;;;;;8.75;93.45;101155.38;51847;1310;1016497;-80
2022/10/28 02:56:23;;;;;;;33.20;16.30;;;;;;;8.70;93.40;101154.16;51760;1286;1017452;-80
2022/10/28 02:58:54;;;;;;;28.20;14.40;;;;;;;8.65;93.28;101154.50;51671;1310;1016454;-80
2022/10/28 03:01:25;;;;;;;30.90;15.60;;;;;;;8.61;93.33;101149.84;51936;1309;1015739;-80
2022/10/28 03:03:56;;;;;;;29.90;14.80;;;;;;;8.58;93.18;101150.79;51647;1302;1015772;-80
2022/10/28 03:06:27;;;;;;;28.10;14.30;;;;;;;8.56;93.31;101142.27;51865;1310;1017174;-81
2022/10/28 03:08:58;;;;;;;29.30;15.30;;;;;;;8.56;93.32;101140.21;51639;1310;1016316;-80
2022/10/28 03:11:30;;;;;;;31.00;15.50;;;;;;;8.54;93.11;101143.46;51824;1309;1017229;-80
2022/10/28 03:14:01;;;;;;;28.00;14.90;;;;;;;8.48;93.33;101147.20;51862;1302;1016170;-80
2022/10/28 03:16:32;;;;;;;28.40;14.40;;;;;;;8.48;93.29;101147.22;51681;1310;1016202;-80
2022/10/28 03:19:04;;;;;;;27.50;14.80;;;;;;;8.44;92.93;101156.55;51928;1291;1016327;-80
2022/10/28 03:21:35;;;;;;;28.70;13.90;;;;;;;8.38;93.03;101161.27;51866;1304;1016230;-81
2022/10/28 03:24:08;;;;;;;29.40;14.40;;;;;;;8.34;92.98;101159.95;51848;1308;1018156;-80
2022/10/28 03:26:41;;;;;;;32.20;15.70;;;;;;;8.34;93.11;101152.25;51639;1310;1016290;-80
2022/10/28 03:29:12;;;;;;;33.40;16.30;;;;;;;8.31;92.97;101148.84;51867;1309;1018085;-81
2022/10/28 03:31:44;;;;;;;32.10;15.10;;;;;;;8.27;93.00;101145.44;51629;1310;1016572;-81
2022/10/28 03:34:15;;;;;;;36.70;19.30;;;;;;;8.25;92.93;101142.87;51587;1307;1016058;-81
2022/10/28 03:36:46;;;;;;;37.80;21.00;;;;;;;8.22;93.13;101143.19;51867;1310;1016308;-81
2022/10/28 03:39:19;;;;;;;40.10;24.80;;;;;;;8.20;93.14;101138.14;51652;1310;1016470;-79
2022/10/28 03:41:50;;;;;;;46.40;29.50;;;;;;;8.21;93.12;101140.27;51949;1309;1016009;-80
2022/10/28 03:44:22;;;;;;;75.90;40.60;;;;;;;8.21;93.24;101139.16;51685;1310;1016126;-80
2022/10/28 03:46:53;;;;;;;101.50;47.20;;;;;;;8.21;93.35;101140.75;51678;1309;1016400;-80
2022/10/28 03:49:25;;;;;;;112.60;51.50;;;;;;;8.22;93.46;101139.20;51623;1310;1018960;-81
2022/10/28 03:51:57;;;;;;;138.80;61.00;;;;;;;8.22;93.59;101142.85;51748;1309;1016474;-80
2022/10/28 03:54:29;;;;;;;121.20;54.00;;;;;;;8.22;93.68;101139.91;51821;1309;1015794;-80
2022/10/28 03:57:00;;;;;;;126.60;57.00;;;;;;;8.21;93.77;101139.14;51880;1312;1016695;-80
2022/10/28 03:59:31;;;;;;;116.80;53.00;;;;;;;8.22;93.71;101135.16;51666;1309;1015995;-80
2022/10/28 04:02:03;;;;;;;107.10;49.60;;;;;;;8.23;93.91;101134.56;51917;1284;1015758;-80
2022/10/28 04:04:34;;;;;;;83.80;40.80;;;;;;;8.25;94.01;101132.29;51905;1283;1016108;-80
2022/10/28 04:07:06;;;;;;;75.00;36.90;;;;;;;8.27;94.13;101136.71;51788;1294;1016232;-82
2022/10/28 04:09:37;;;;;;;62.10;33.50;;;;;;;8.27;94.13;101137.88;51976;1309;1016280;-84
2022/10/28 04:12:09;;;;;;;57.30;29.40;;;;;;;8.28;94.23;101137.00;52095;1310;1016312;-84
2022/10/28 04:14:41;;;;;;;49.30;26.30;;;;;;;8.29;94.36;101134.98;52124;1311;1016394;-84
2022/10/28 04:17:12;;;;;;;48.00;23.10;;;;;;;8.30;94.21;101130.02;52168;1311;1016336;-85
2022/10/28 04:19:44;;;;;;;40.90;21.70;;;;;;;8.29;94.00;101125.77;52141;1312;1016450;-84
2022/10/28 04:22:15;;;;;;;44.80;25.10;;;;;;;8.30;94.04;101123.58;52173;1309;1016014;-84
2022/10/28 04:24:46;;;;;;;38.30;22.90;;;;;;;8.30;94.22;101123.88;51965;1283;1015923;-85
2022/10/28 04:27:17;;;;;;;39.40;23.70;;;;;;;8.30;94.31;101129.93;51997;1312;1016321;-83
2022/10/28 04:29:49;;;;;;;36.30;20.70;;;;;;;8.28;94.31;101127.23;51810;1312;1015973;-83
2022/10/28 04:32:20;;;;;;;32.30;18.10;;;;;;;8.25;93.98;101120.30;51870;1292;1016510;-82
2022/10/28 04:34:54;;;;;;;32.80;18.00;;;;;;;8.23;94.04;101127.73;51912;1305;1016399;-81
2022/10/28 04:37:26;;;;;;;33.50;18.00;;;;;;;8.19;93.93;101125.85;51972;1283;1015968;-82
2022/10/28 04:39:57;;;;;;;30.30;17.40;;;;;;;8.17;93.78;101122.83;51957;1307;1016138;-82
2022/10/28 04:42:29;;;;;;;33.80;17.50;;;;;;;8.16;93.90;101117.44;51672;1309;1016284;-82
2022/10/28 04:45:02;;;;;;;32.60;17.10;;;;;;;8.16;93.90;101110.91;51620;1309;1016268;-82
2022/10/28 04:47:33;;;;;;;30.20;16.30;;;;;;;8.17;93.93;101110.18;51759;1309;1018140;-81
2022/10/28 04:50:05;;;;;;;30.40;16.30;;;;;;;8.18;94.04;101109.64;52007;1312;1016141;-81
2022/10/28 04:52:36;;;;;;;29.00;15.20;;;;;;;8.19;94.06;101104.63;51834;1312;1017288;-79
2022/10/28 04:55:09;;;;;;;28.20;14.80;;;;;;;8.20;94.04;101103.27;51580;1309;1015905;-81
2022/10/28 04:57:40;;;;;;;26.40;14.60;;;;;;;8.18;94.12;101101.89;52070;1309;1016191;-81
2022/10/28 05:00:13;;;;;;;30.60;16.00;;;;;;;8.16;94.07;101101.95;51722;1308;1018522;-80
2022/10/28 05:02:44;;;;;;;28.90;14.40;;;;;;;8.13;94.18;101103.94;51875;1309;1016614;-80
2022/10/28 05:05:16;;;;;;;28.20;14.40;;;;;;;8.09;94.04;101100.95;51694;1312;1016477;-80
2022/10/28 05:07:47;;;;;;;28.30;14.40;;;;;;;8.06;93.94;101101.58;51731;1312;1016203;-80
2022/10/28 05:10:19;;;;;;;29.50;15.90;;;;;;;8.03;93.89;101100.18;51952;1309;1016220;-80
2022/10/28 05:12:51;;;;;;;33.50;16.40;;;;;;;7.99;93.91;101103.62;51993;1310;1015929;-80
2022/10/28 05:15:25;;;;;;;35.60;17.80;;;;;;;7.97;93.98;101103.61;51881;1311;1016004;-78
2022/10/28 05:17:57;;;;;;;30.60;15.90;;;;;;;7.95;93.89;101104.08;51944;1308;1016118;-79
2022/10/28 05:20:28;;;;;;;33.90;18.00;;;;;;;7.94;93.99;101101.87;51738;1311;1016048;-79
2022/10/28 05:22:59;;;;;;;39.20;19.40;;;;;;;7.93;93.83;101110.07;51751;1312;1016110;-78
2022/10/28 05:25:31;;;;;;;36.70;19.60;;;;;;;7.92;93.65;101104.47;51910;1311;1015747;-79
2022/10/28 05:28:02;;;;;;;39.60;20.30;;;;;;;7.91;93.58;101098.30;51713;1304;1015830;-79
2022/10/28 05:30:35;;;;;;;34.40;18.40;;;;;;;7.87;93.55;101095.39;51938;1309;1015814;-79
2022/10/28 05:33:07;;;;;;;38.60;20.40;;;;;;;7.83;93.49;101096.04;51782;1312;1017007;-78
2022/10/28 05:35:38;;;;;;;36.80;18.90;;;;;;;7.82;93.50;101097.36;51621;1312;1016206;-79
2022/10/28 05:38:10;;;;;;;37.20;17.90;;;;;;;7.83;93.56;101099.34;51743;1311;1016213;-79
2022/10/28 05:40:42;;;;;;;35.30;18.80;;;;;;;7.83;93.66;101104.16;51688;1312;1015841;-79
2022/10/28 05:43:14;;;;;;;38.70;20.20;;;;;;;7.82;93.82;101106.40;51757;1308;1015799;-79
2022/10/28 05:45:51;;;;;;;31.50;17.40;;;;;;;7.81;93.87;101114.77;52024;1311;1016236;-79
2022/10/28 05:48:23;;;;;;;33.90;18.10;;;;;;;7.82;93.74;101108.87;51799;1309;1015590;-79
2022/10/28 05:50:54;;;;;;;37.90;19.50;;;;;;;7.83;93.64;101109.27;51734;1312;1016618;-78
2022/10/28 05:53:26;;;;;;;35.60;19.20;;;;;;;7.81;93.75;101108.42;51899;1309;1016497;-79
2022/10/28 05:55:57;;;;;;;32.80;16.90;;;;;;;7.80;93.79;101105.20;51936;1312;1016433;-79
2022/10/28 05:58:29;;;;;;;33.50;15.70;;;;;;;7.81;94.03;101101.20;52199;1311;1016378;-77
2022/10/28 06:01:00;;;;;;;31.10;15.40;;;;;;;7.83;94.03;101099.41;52123;1308;1016690;-79
2022/10/28 06:03:31;;;;;;;29.60;14.80;;;;;;;7.85;94.20;101100.69;51576;1309;1016231;-79
2022/10/28 06:06:03;;;;;;;30.70;16.70;;;;;;;7.87;94.33;101097.24;51582;1286;1016609;-79
2022/10/28 06:08:34;;;;;;;44.40;21.40;;;;;;;7.88;94.46;101100.20;51554;1312;1016480;-78
2022/10/28 06:11:06;;;;;;;46.00;23.00;;;;;;;7.91;94.62;101100.06;51632;1288;1018516;-80
2022/10/28 06:13:37;;;;;;;67.80;35.20;;;;;;;7.93;94.93;101100.06;52046;1303;1015794;-80
2022/10/28 06:16:11;;;;;;;66.80;41.20;;;;;;;7.95;95.02;101095.70;51890;1310;1016919;-80
2022/10/28 06:18:43;;;;;;;59.80;37.90;;;;;;;7.98;95.18;101093.42;52159;1312;1015992;-80
2022/10/28 06:21:14;;;;;;;47.60;27.10;;;;;;;7.99;95.38;101097.11;51860;1312;1015589;-79
2022/10/28 06:23:46;;;;;;;44.00;25.20;;;;;;;8.01;95.49;101098.58;51492;1312;1018189;-79
2022/10/28 06:26:18;;;;;;;42.70;24.20;;;;;;;8.02;95.83;101100.91;51494;1309;1016174;-79
2022/10/28 06:28:50;;;;;;;42.20;23.20;;;;;;;8.04;95.81;101102.67;51641;1309;1016264;-79
2022/10/28 06:31:21;;;;;;;61.20;35.70;;;;;;;8.06;96.02;101102.94;51627;1304;1016743;-79
2022/10/28 06:33:53;;;;;;;48.70;28.00;;;;;;;8.09;96.09;101098.81;51406;1306;1016302;-79
2022/10/28 06:36:24;;;;;;;48.60;26.90;;;;;;;8.12;96.09;101106.35;51462;1312;1017212;-79
2022/10/28 06:38:58;;;;;;;45.10;26.40;;;;;;;8.16;95.95;101102.17;51523;1312;1016158;-79
2022/10/28 06:41:30;;;;;;;42.10;22.70;;;;;;;8.22;96.24;101097.02;52068;1312;1016195;-79
2022/10/28 06:44:05;;;;;;;39.80;21.60;;;;;;;8.26;96.50;101095.77;51848;1312;1016164;-79
2022/10/28 06:46:37;;;;;;;38.30;21.30;;;;;;;8.32;97.15;101090.91;52101;1294;1016454;-79
2022/10/28 06:49:09;;;;;;;42.20;20.40;;;;;;;8.39;97.72;101099.61;51879;1315;1016302;-79
2022/10/28 06:51:40;;;;;;;45.50;22.20;;;;;;;8.50;98.56;101106.28;51920;1313;1016107;-79
2022/10/28 06:54:11;;;;;;;40.60;21.40;;;;;;;8.60;98.89;101116.30;51819;1312;1016327;-79
2022/10/28 06:56:44;;;;;;;42.40;22.80;;;;;;;8.68;99.05;101112.95;51911;1314;1016648;-79
2022/10/28 06:59:15;;;;;;;39.90;22.70;;;;;;;8.77;99.31;101113.30;51870;1309;1016148;-79
2022/10/28 07:01:47;;;;;;;43.00;23.30;;;;;;;8.87;99.67;101113.92;51836;1304;1018077;-79
2022/10/28 07:04:19;;;;;;;47.40;23.20;;;;;;;8.96;99.69;101111.02;51910;1304;1016134;-79
2022/10/28 07:06:54;;;;;;;48.10;27.60;;;;;;;9.06;99.84;101109.46;51925;1313;1015733;-79
2022/10/28 07:09:26;;;;;;;52.20;27.20;;;;;;;9.14;99.67;101110.84;51860;1313;1015866;-79
2022/10/28 07:12:03;;;;;;;48.60;27.20;;;;;;;9.24;100.00;101114.16;51861;1310;1015967;-79
2022/10/28 07:14:35;;;;;;;49.70;29.00;;;;;;;9.34;100.00;101118.83;52111;1312;1016162;-79
2022/10/28 07:17:08;;;;;;;52.80;31.30;;;;;;;9.49;100.00;101122.92;51975;1309;1016457;-79
2022/10/28 07:19:39;;;;;;;53.40;28.50;;;;;;;9.60;100.00;101114.59;51940;1310;1016546;-79
2022/10/28 07:22:10;;;;;;;56.70;32.00;;;;;;;9.71;100.00;101117.30;51824;1315;1018606;-79
2022/10/28 07:24:41;;;;;;;50.30;30.70;;;;;;;9.84;100.00;101116.30;51862;1312;1016185;-80
2022/10/28 07:27:13;;;;;;;46.80;28.60;;;;;;;9.97;100.00;101114.21;51889;1312;1015969;-79
2022/10/28 07:29:44;;;;;;;50.40;27.60;;;;;;;10.10;100.00;101115.56;51706;1315;1016562;-79
2022/10/28 07:32:15;;;;;;;48.80;27.20;;;;;;;10.22;100.00;101115.17;51540;1315;1016248;-79
2022/10/28 07:34:47;;;;;;;46.90;25.60;;;;;;;10.33;100.00;101113.54;51557;1294;1016292;-79
2022/10/28 07:37:19;;;;;;;50.10;28.80;;;;;;;10.45;100.00;101115.64;51423;1304;1016372;-78
2022/10/28 07:39:51;;;;;;;46.60;26.40;;;;;;;10.55;100.00;101117.40;51717;1315;1016176;-79
2022/10/28 07:42:22;;;;;;;43.40;24.30;;;;;;;10.65;100.00;101108.27;51935;1287;1016222;-79
2022/10/28 07:44:54;;;;;;;42.30;23.50;;;;;;;10.71;100.00;101101.79;51814;1310;1018168;-79
2022/10/28 07:47:25;;;;;;;42.90;23.80;;;;;;;10.77;100.00;101097.86;51810;1311;1015705;-80
2022/10/28 07:49:56;;;;;;;43.40;22.80;;;;;;;10.85;100.00;101108.71;51888;1311;1016391;-79
2022/10/28 07:52:28;;;;;;;39.90;21.70;;;;;;;10.93;100.00;101113.57;51838;1311;1015704;-79
2022/10/28 07:55:00;;;;;;;41.40;24.40;;;;;;;11.02;100.00;101121.25;51755;1312;1019821;-79
2022/10/28 07:57:32;;;;;;;40.00;20.90;;;;;;;11.10;100.00;101124.36;51560;1307;1016066;-79
2022/10/28 08:00:05;;;;;;;37.90;20.80;;;;;;;11.17;100.00;101125.33;51443;1312;1016279;-78
2022/10/28 08:02:36;;;;;;;37.70;20.90;;;;;;;11.23;100.00;101119.58;51505;1310;1017944;-78
2022/10/28 08:05:09;;;;;;;44.30;22.70;;;;;;;11.29;100.00;101114.87;51586;1308;1019399;-79
2022/10/28 08:07:41;;;;;;;42.60;22.50;;;;;;;11.36;100.00;101110.41;51607;1309;1016216;-78
2022/10/28 08:10:14;;;;;;;38.70;21.80;;;;;;;11.44;100.00;101106.48;51496;1311;1018027;-79
2022/10/28 08:12:46;;;;;;;41.20;21.80;;;;;;;11.54;100.00;101113.10;51574;1312;1016388;-79
2022/10/28 08:15:22;;;;;;;44.40;23.70;;;;;;;11.62;100.00;101110.70;51490;1304;1016102;-79
2022/10/28 08:17:54;;;;;;;47.10;23.00;;;;;;;11.68;100.00;101111.14;51628;1309;1016200;-80
2022/10/28 08:20:25;;;;;;;38.20;20.70;;;;;;;11.74;100.00;101110.87;51805;1315;1015574;-80
2022/10/28 08:22:58;;;;;;;36.50;19.70;;;;;;;11.79;100.00;101109.08;51918;1312;1016009;-79
2022/10/28 08:25:29;;;;;;;34.20;18.70;;;;;;;11.84;100.00;101107.02;52035;1312;1020904;-80
2022/10/28 08:28:00;;;;;;;34.20;17.00;;;;;;;11.89;100.00;101104.63;51862;1312;1015908;-79
2022/10/28 08:30:32;;;;;;;36.70;19.40;;;;;;;11.94;100.00;101102.93;51827;1309;1016168;-80
2022/10/28 08:33:03;;;;;;;33.90;18.70;;;;;;;11.99;100.00;101102.42;51829;1312;1015883;-80
2022/10/28 08:35:35;;;;;;;39.00;18.30;;;;;;;12.04;100.00;101103.30;51818;1315;1016420;-79
2022/10/28 08:38:09;;;;;;;34.70;16.70;;;;;;;12.09;100.00;101102.17;52060;1312;1016017;-79
2022/10/28 08:40:50;;;;;;;29.80;16.10;;;;;;;12.16;100.00;101094.05;51851;1301;1016301;-80
2022/10/28 08:43:32;;;;;;;32.70;15.80;;;;;;;12.21;100.00;101089.84;51910;1312;1018164;-80
2022/10/28 08:46:10;;;;;;;35.20;16.60;;;;;;;12.27;100.00;101089.08;51904;1309;1016494;-80
2022/10/28 08:48:43;;;;;;;33.50;16.40;;;;;;;12.35;100.00;101087.72;51928;1308;1015748;-79
2022/10/28 08:51:18;;;;;;;33.40;17.30;;;;;;;12.47;100.00;101095.16;51905;1313;1016134;-80
2022/10/28 08:53:55;;;;;;;30.20;16.20;;;;;;;12.58;100.00;101093.44;51868;1314;1015550;-80
2022/10/28 08:56:32;;;;;;;28.70;14.50;;;;;;;12.69;100.00;101100.27;51774;1305;1016273;-80
2022/10/28 08:59:07;;;;;;;31.00;14.10;;;;;;;12.77;100.00;101095.95;51804;1304;1016446;-80
2022/10/28 09:01:46;;;;;;;28.90;13.50;;;;;;;12.87;100.00;101098.66;51838;1312;1016126;-80
2022/10/28 09:04:27;;;;;;;27.00;12.80;;;;;;;12.97;100.00;101099.40;51785;1315;1016361;-79
2022/10/28 09:06:59;;;;;;;26.40;12.50;;;;;;;13.08;100.00;101096.66;51841;1315;1016562;-80
2022/10/28 09:09:32;;;;;;;28.60;12.60;;;;;;;13.17;100.00;101099.88;51772;1312;1016437;-80
2022/10/28 09:12:26;;;;;;;24.50;11.90;;;;;;;13.27;100.00;101101.28;51787;1311;1016484;-80
2022/10/28 09:15:13;;;;;;;28.70;13.50;;;;;;;13.38;100.00;101099.20;51922;1312;1016207;-80
2022/10/28 09:17:54;;;;;;;32.30;14.50;;;;;;;13.48;100.00;101101.41;51883;1307;1016984;-80
2022/10/28 09:20:28;;;;;;;;;;;;;;;13.59;100.00;101101.23;51750;1309;1019082;-80
2022/10/28 09:23:07;;;;;;;26.10;12.00;;;;;;;13.69;100.00;101097.77;51768;1300;1016257;-80
2022/10/28 09:25:47;;;;;;;24.20;12.80;;;;;;;13.81;100.00;101098.97;51895;1309;1016274;-80
2022/10/28 09:28:32;;;;;;;24.00;11.90;;;;;;;13.95;100.00;101104.30;51875;1304;1017951;-80
2022/10/28 09:31:13;;;;;;;27.40;14.20;;;;;;;14.09;100.00;101101.90;51784;1312;1016091;-80
2022/10/28 09:33:54;;;;;;;26.60;12.90;;;;;;;14.20;100.00;101104.76;51815;1283;1016496;-81
2022/10/28 09:36:32;;;;;;;25.00;13.20;;;;;;;14.32;100.00;101095.85;52070;1314;1016302;-80
2022/10/28 09:39:06;;;;;;;35.50;18.60;;;;;;;14.41;100.00;101094.70;52065;1311;1018411;-79
2022/10/28 09:41:41;;;;;;;32.90;20.90;;;;;;;14.48;100.00;101089.84;51894;1315;1016220;-80
2022/10/28 09:44:19;;;;;;;35.10;21.70;;;;;;;14.56;100.00;101087.79;51876;1312;1016197;-79
2022/10/28 09:46:55;;;;;;;28.30;13.40;;;;;;;14.68;100.00;101086.23;51883;1310;1016162;-80
2022/10/28 09:49:32;;;;;;;22.80;9.90;;;;;;;14.80;100.00;101081.58;51747;1310;1016209;-80
2022/10/28 09:52:11;;;;;;;21.90;8.60;;;;;;;14.92;100.00;101081.14;51875;1312;1016494;-80
2022/10/28 09:54:49;;;;;;;27.90;10.90;;;;;;;15.02;100.00;101085.23;51805;1307;1015752;-80
2022/10/28 09:57:21;;;;;;;27.60;13.10;;;;;;;15.08;100.00;101082.30;51866;1284;1016242;-80
2022/10/28 09:59:53;;;;;;;26.30;13.90;;;;;;;15.19;100.00;101089.66;51917;1312;1016413;-80
2022/10/28 10:02:34;;;;;;;23.60;9.80;;;;;;;15.31;100.00;101087.88;51999;1307;1015817;-79
2022/10/28 10:05:15;;;;;;;20.10;9.20;;;;;;;15.37;100.00;101081.98;52039;1310;1016882;-80
2022/10/28 10:07:52;;;;;;;26.80;10.80;;;;;;;15.44;100.00;101082.91;51832;1311;1016103;-79
2022/10/28 10:10:27;;;;;;;29.60;11.40;;;;;;;15.53;100.00;101078.16;51784;1310;1016032;-80
2022/10/28 10:13:04;;;;;;;20.30;9.90;;;;;;;15.59;100.00;101079.36;51798;1294;1016539;-80
2022/10/28 10:15:42;;;;;;;19.70;8.10;;;;;;;15.67;100.00;101079.20;51828;1309;1016041;-80
2022/10/28 10:18:21;;;;;;;19.50;8.30;;;;;;;15.76;100.00;101079.09;51824;1310;1016232;-80
2022/10/28 10:20:57;;;;;;;16.90;5.80;;;;;;;15.84;100.00;101074.17;51859;1299;1016065;-79
2022/10/28 10:23:34;;;;;;;14.40;4.60;;;;;;;15.95;100.00;101075.36;51700;1310;1016103;-79
2022/10/28 10:26:08;;;;;;;11.00;3.80;;;;;;;16.08;100.00;101072.23;51678;1310;1016306;-80
2022/10/28 10:28:46;;;;;;;12.90;4.20;;;;;;;16.20;100.00;101067.73;51981;1310;1015466;-80
2022/10/28 10:31:23;;;;;;;13.60;3.90;;;;;;;16.29;100.00;101069.86;51792;1310;1015975;-79
2022/10/28 10:33:56;;;;;;;15.20;4.10;;;;;;;16.37;100.00;101070.27;51890;1286;1016405;-80
2022/10/28 10:36:30;;;;;;;18.50;5.70;;;;;;;16.44;100.00;101076.13;51857;1310;1016094;-80
2022/10/28 10:39:03;;;;;;;19.40;7.80;;;;;;;16.59;100.00;101078.34;51993;1310;1016404;-79
2022/10/28 10:41:40;;;;;;;19.60;6.70;;;;;;;16.74;99.55;101071.06;51940;1309;1016045;-80
2022/10/28 10:44:35;;;;;;;17.70;6.20;;;;;;;16.87;99.40;101066.33;52055;1310;1015885;-80
2022/10/28 10:47:22;;;;;;;14.00;4.70;;;;;;;16.98;99.11;101067.16;51834;1310;1016820;-80
2022/10/28 10:50:13;;;;;;;19.00;3.60;;;;;;;17.14;98.75;101059.27;51615;1309;1019569;-79
2022/10/28 10:52:53;;;;;;;11.90;2.50;;;;;;;17.16;98.45;101057.08;51579;1310;1016342;-79
2022/10/28 10:55:32;;;;;;;;;;;;;;;17.20;98.18;101059.71;51711;1294;1016323;-80
2022/10/28 10:58:05;;;;;;;10.90;2.80;;;;;;;17.30;97.79;101059.65;51700;1299;1016107;-80
2022/10/28 11:00:45;;;;;;;11.10;2.40;;;;;;;17.35;97.40;101053.47;51605;1304;1015871;-80
2022/10/28 11:03:21;;;;;;;9.50;2.40;;;;;;;17.44;97.36;101051.55;51557;1302;1016452;-80
2022/10/28 11:05:55;;;;;;;8.80;1.80;;;;;;;17.50;97.02;101049.39;51590;1310;1016027;-79
2022/10/28 11:08:37;;;;;;;7.00;1.50;;;;;;;17.57;96.80;101044.65;51664;1309;1015934;-80
2022/10/28 11:11:13;;;;;;;9.60;2.40;;;;;;;17.65;96.46;101043.77;51856;1311;1016637;-80
2022/10/28 11:13:45;;;;;;;9.90;1.30;;;;;;;17.76;96.22;101045.48;51944;1310;1016478;-80
2022/10/28 11:16:22;;;;;;;8.50;1.30;;;;;;;17.85;95.73;101046.73;51631;1309;1016194;-79
2022/10/28 11:18:55;;;;;;;6.70;1.40;;;;;;;17.93;95.39;101050.39;51638;1310;1244157;-80
2022/10/28 11:21:50;;;;;;;9.10;1.60;;;;;;;18.00;95.07;101042.35;51943;1310;1016480;-80
2022/10/28 11:24:36;;;;;;;6.40;1.40;;;;;;;18.07;94.59;101042.71;51764;1304;1016186;-80
2022/10/28 11:27:18;;;;;;;7.80;1.40;;;;;;;18.16;94.24;101038.77;51614;1308;1016557;-80
2022/10/28 11:29:50;;;;;;;8.60;1.80;;;;;;;18.29;93.72;101038.46;51650;1310;1016579;-80
2022/10/28 11:32:31;;;;;;;6.50;1.70;;;;;;;18.34;93.52;101034.30;51717;1310;1017796;-80
2022/10/28 11:35:23;;;;;;;5.70;1.60;;;;;;;18.35;93.03;101031.52;51903;1310;1015991;-80